Time;durP1;ratioP1;P1;durP2;ratioP2;P2;SDS_P1;SDS_P2;PMS_P1;PMS_P2;Temp;Humidity;BMP_temperature;BMP_pressure;BME280_temperature;BME280_humidity;BME280_pressure;Samples;Min_cycle;Max_cycle;Signal;HPM_P1;HPM_P2
2022/01/13 07:53:22;;;;;;;74.70;35.45;;;4.60;99.90;;;;;;5037075;28;88422;-37
2022/01/13 07:55:49;;;;;;;116.45;41.90;;;4.50;99.90;;;;;;5031880;28;87517;-37
2022/01/13 07:58:18;;;;;;;96.05;42.83;;;4.60;99.90;;;;;;4941499;27;87870;-35
2022/01/13 08:00:44;;;;;;;120.35;42.10;;;4.60;99.90;;;;;;5001130;28;89014;-36
2022/01/13 08:03:09;;;;;;;106.40;38.13;;;4.60;99.90;;;;;;5011066;28;90955;-38
2022/01/13 08:05:35;;;;;;;97.93;37.90;;;4.60;99.90;;;;;;5010703;28;87607;-37
2022/01/13 08:08:01;;;;;;;88.05;36.95;;;4.70;99.90;;;;;;5010954;28;87767;-40
2022/01/13 08:10:26;;;;;;;84.05;35.55;;;4.70;99.90;;;;;;4956797;27;89230;-35
2022/01/13 08:12:52;;;;;;;95.25;33.83;;;4.70;99.90;;;;;;4989952;28;91254;-34
2022/01/13 08:15:17;;;;;;;97.65;37.42;;;4.80;99.90;;;;;;4985823;28;87514;-36
2022/01/13 08:20:31;;;;;;;73.40;29.45;;;4.80;99.90;;;;;;4972213;28;88222;-39
2022/01/13 08:22:57;;;;;;;88.43;33.03;;;4.80;99.90;;;;;;4971972;28;88270;-40
2022/01/13 08:25:24;;;;;;;61.28;29.00;;;4.80;99.90;;;;;;4970882;28;88658;-34
2022/01/13 08:27:51;;;;;;;94.10;32.90;;;4.90;99.90;;;;;;4970584;28;87583;-37
2022/01/13 08:30:20;;;;;;;69.65;30.98;;;4.90;99.90;;;;;;4971887;28;88533;-39
2022/01/13 08:32:46;;;;;;;71.32;28.77;;;4.90;99.90;;;;;;4970732;28;89074;-34
2022/01/13 08:35:12;;;;;;;73.90;29.92;;;4.90;99.90;;;;;;4970477;28;89151;-34
2022/01/13 08:37:38;;;;;;;76.78;27.33;;;4.90;99.90;;;;;;4971758;28;87701;-35
2022/01/13 08:40:08;;;;;;;62.72;27.25;;;5.00;99.90;;;;;;4971384;28;88638;-38
2022/01/13 08:42:34;;;;;;;60.47;23.98;;;5.00;99.90;;;;;;4955997;28;92839;-38
2022/01/13 08:45:02;;;;;;;68.32;29.67;;;5.00;99.90;;;;;;4947609;27;90071;-39
2022/01/13 08:47:28;;;;;;;61.03;26.00;;;5.10;99.90;;;;;;4974312;28;88066;-37
2022/01/13 08:49:53;;;;;;;62.72;26.45;;;5.10;99.90;;;;;;4978280;28;90113;-37
2022/01/13 08:52:19;;;;;;;72.85;29.67;;;5.10;99.90;;;;;;4991082;28;89752;-39
2022/01/13 08:54:48;;;;;;;66.90;27.15;;;5.10;99.90;;;;;;4970091;28;88669;-40
2022/01/13 08:57:14;;;;;;;77.93;31.55;;;5.20;99.90;;;;;;4971219;28;87454;-39
2022/01/13 08:59:40;;;;;;;56.63;26.65;;;5.10;99.90;;;;;;4969592;28;90562;-36
2022/01/13 09:02:06;;;;;;;51.58;26.77;;;5.10;99.90;;;;;;4971020;28;90416;-41
2022/01/13 09:04:32;;;;;;;61.40;27.67;;;5.10;99.90;;;;;;4961504;28;88235;-43
2022/01/13 09:06:58;;;;;;;66.57;27.77;;;5.20;99.90;;;;;;4956521;28;87674;-35
2022/01/13 09:09:23;;;;;;;76.47;28.75;;;5.20;99.90;;;;;;4967236;28;90206;-39
2022/01/13 09:11:49;;;;;;;70.50;29.35;;;5.20;99.90;;;;;;4084323;28;10000987;-40
2022/01/13 09:14:16;;;;;;;62.03;27.05;;;5.20;99.90;;;;;;4951285;28;88899;-37
2022/01/13 09:16:43;;;;;;;55.60;24.75;;;5.20;99.90;;;;;;4953327;28;89571;-39
2022/01/13 09:19:11;;;;;;;60.20;26.67;;;5.20;99.90;;;;;;4955438;28;87598;-40
2022/01/13 09:21:38;;;;;;;69.13;29.27;;;5.20;99.90;;;;;;4955376;28;88724;-42
2022/01/13 09:24:06;;;;;;;55.58;25.67;;;5.30;99.90;;;;;;4955354;28;88953;-40
2022/01/13 09:26:32;;;;;;;54.70;25.90;;;5.20;99.90;;;;;;4954387;28;89782;-39
2022/01/13 09:28:58;;;;;;;55.50;26.23;;;5.30;99.90;;;;;;4955595;28;88154;-37
2022/01/13 09:31:23;;;;;;;63.05;27.17;;;5.30;99.90;;;;;;4954997;28;88411;-38
2022/01/13 09:33:50;;;;;;;58.85;25.23;;;5.30;99.90;;;;;;4937530;28;90174;-40
2022/01/13 09:36:16;;;;;;;56.92;25.75;;;5.30;99.90;;;;;;4954759;28;88470;-43
2022/01/13 09:38:42;;;;;;;61.58;25.70;;;5.30;99.90;;;;;;4955480;28;87634;-40
2022/01/13 09:41:07;;;;;;;52.75;23.70;;;5.30;99.90;;;;;;4955675;28;87654;-39
2022/01/13 09:43:33;;;;;;;64.35;25.15;;;5.30;99.90;;;;;;4954790;28;89826;-38
2022/01/13 09:45:59;;;;;;;52.80;26.65;;;5.30;99.90;;;;;;4954031;28;89380;-41
2022/01/13 09:48:27;;;;;;;52.70;26.35;;;5.30;99.90;;;;;;4950554;28;88026;-40
2022/01/13 09:50:52;;;;;;;58.70;25.83;;;5.40;99.90;;;;;;4954677;28;88218;-43
2022/01/13 09:53:18;;;;;;;47.35;25.45;;;5.40;99.90;;;;;;4953893;28;90382;-39
2022/01/13 09:55:45;;;;;;;71.00;29.25;;;5.40;99.90;;;;;;4954470;28;89696;-35
2022/01/13 09:58:11;;;;;;;49.47;26.42;;;5.40;99.90;;;;;;4954569;28;87428;-39
2022/01/13 10:00:41;;;;;;;55.83;27.90;;;5.40;99.90;;;;;;4936151;28;88430;-39
2022/01/13 10:03:13;;;;;;;63.70;26.45;;;5.50;99.90;;;;;;5003574;28;91720;-35
2022/01/13 10:05:54;;;;;;;61.47;27.10;;;5.40;99.90;;;;;;4991426;28;88734;-40
2022/01/13 10:08:38;;;;;;;68.78;28.30;;;5.40;99.90;;;;;;4987661;28;88490;-37
2022/01/13 10:11:48;;;;;;;65.95;26.63;;;5.50;99.90;;;;;;4993980;28;87744;-34
2022/01/13 10:16:59;;;;;;;65.45;28.73;;;5.40;99.90;;;;;;4953740;28;89682;-37
2022/01/13 10:19:57;;;;;;;72.55;28.35;;;5.50;99.90;;;;;;4954808;28;88278;-38
2022/01/13 10:22:31;;;;;;;51.13;26.42;;;5.50;99.90;;;;;;4949169;28;88443;-38
2022/01/13 10:24:58;;;;;;;52.10;26.33;;;5.50;99.90;;;;;;4972417;28;90365;-37
2022/01/13 10:27:31;;;;;;;60.03;26.13;;;5.50;99.90;;;;;;4972813;28;89648;-42
2022/01/13 10:30:00;;;;;;;72.82;27.58;;;5.50;99.90;;;;;;4972134;28;90222;-39
2022/01/13 10:32:36;;;;;;;65.53;29.98;;;5.60;99.90;;;;;;4972015;28;88432;-42
2022/01/13 10:35:11;;;;;;;55.17;24.48;;;5.60;99.90;;;;;;4989379;28;90322;-40
2022/01/13 10:37:56;;;;;;;72.43;27.60;;;5.60;99.90;;;;;;4993175;28;88441;-32
2022/01/13 10:40:30;;;;;;;63.45;25.67;;;5.60;99.90;;;;;;4993248;28;87548;-37
2022/01/13 10:45:27;;;;;;;65.05;26.67;;;5.60;99.90;;;;;;4992953;28;90328;-36
2022/01/13 10:48:04;;;;;;;52.33;24.30;;;5.70;99.90;;;;;;4987709;28;88196;-35
2022/01/13 10:50:47;;;;;;;56.03;27.98;;;5.70;99.90;;;;;;4976292;28;88006;-38
2022/01/13 10:53:17;;;;;;;51.95;27.35;;;5.70;99.90;;;;;;4972661;28;87673;-39
2022/01/13 10:55:47;;;;;;;57.35;27.67;;;5.70;99.90;;;;;;4978110;28;90123;-38
2022/01/13 10:58:14;;;;;;;58.35;26.65;;;5.80;99.90;;;;;;4982168;28;88339;-38
2022/01/13 11:00:40;;;;;;;59.45;26.35;;;5.80;99.90;;;;;;4988792;28;88518;-35
2022/01/13 11:03:18;;;;;;;73.57;31.95;;;5.80;99.90;;;;;;4992335;28;87796;-36
2022/01/13 11:05:48;;;;;;;70.47;29.30;;;5.80;99.90;;;;;;4991054;28;89187;-36
2022/01/13 11:08:21;;;;;;;59.17;32.00;;;5.80;99.90;;;;;;4992292;28;89582;-41
2022/01/13 11:10:49;;;;;;;64.45;29.95;;;5.80;99.90;;;;;;4992502;28;87549;-35
2022/01/13 11:13:23;;;;;;;61.80;29.38;;;5.80;99.90;;;;;;4992691;28;88779;-34
2022/01/13 11:15:55;;;;;;;62.88;29.42;;;5.80;99.90;;;;;;4992560;28;90162;-35
2022/01/13 11:18:24;;;;;;;60.95;26.83;;;5.80;99.90;;;;;;4993017;28;88128;-35
2022/01/13 11:20:50;;;;;;;62.63;29.50;;;5.90;99.90;;;;;;4992666;28;87600;-40
2022/01/13 11:23:17;;;;;;;58.60;29.25;;;5.90;99.90;;;;;;4992493;28;87720;-36
2022/01/13 11:25:45;;;;;;;46.65;22.48;;;5.90;99.90;;;;;;4992234;28;90082;-37
2022/01/13 11:28:12;;;;;;;49.53;25.85;;;5.90;99.90;;;;;;4992763;28;89665;-38
2022/01/13 11:30:39;;;;;;;49.53;26.63;;;5.90;99.90;;;;;;4992157;28;88651;-38
2022/01/13 11:33:05;;;;;;;50.08;29.10;;;5.90;99.90;;;;;;4991685;28;87799;-38
2022/01/13 11:35:45;;;;;;;53.47;28.60;;;5.90;99.90;;;;;;4992249;28;90198;-38
2022/01/13 11:38:13;;;;;;;40.45;24.33;;;5.90;99.90;;;;;;4989037;28;89579;-37
2022/01/13 11:40:43;;;;;;;49.23;25.33;;;5.90;99.90;;;;;;4884654;28;103515;-34
2022/01/13 11:43:40;;;;;;;53.28;25.27;;;5.90;99.90;;;;;;4951665;28;88063;-40
2022/01/13 11:46:13;;;;;;;52.38;27.90;;;5.90;99.90;;;;;;4951987;28;90140;-38
2022/01/13 11:48:54;;;;;;;55.40;28.13;;;5.90;99.90;;;;;;4959944;28;89378;-36
2022/01/13 11:51:21;;;;;;;54.17;29.90;;;5.90;99.90;;;;;;4968777;28;87659;-37
2022/01/13 11:54:00;;;;;;;51.65;29.67;;;5.90;99.90;;;;;;4961934;28;87936;-33
2022/01/13 11:56:27;;;;;;;46.38;26.85;;;6.00;99.90;;;;;;4959383;28;89209;-39
2022/01/13 11:58:54;;;;;;;50.45;27.02;;;5.90;99.90;;;;;;4961431;28;89820;-40
2022/01/13 12:01:26;;;;;;;36.33;20.73;;;5.90;99.90;;;;;;4961422;28;88584;-35
2022/01/13 12:04:01;;;;;;;42.05;22.73;;;5.90;99.90;;;;;;4961471;28;87718;-35
2022/01/13 12:06:44;;;;;;;49.40;26.50;;;5.90;99.90;;;;;;4960120;28;90303;-36
2022/01/13 12:09:31;;;;;;;44.70;25.65;;;5.90;99.90;;;;;;4961745;28;89911;-37
2022/01/13 12:11:59;;;;;;;44.58;24.67;;;5.90;99.90;;;;;;4961539;28;87545;-36
2022/01/13 12:16:59;;;;;;;51.70;24.55;;;5.90;99.90;;;;;;4971550;28;90586;-36
2022/01/13 12:19:38;;;;;;;42.80;25.15;;;5.90;99.90;;;;;;4971767;28;90156;-36
2022/01/13 12:22:14;;;;;;;50.28;27.42;;;5.90;99.90;;;;;;4971880;28;88487;-35
2022/01/13 12:24:52;;;;;;;47.90;24.83;;;5.90;99.90;;;;;;4972145;28;87787;-37
2022/01/13 12:27:21;;;;;;;49.13;26.37;;;5.90;99.90;;;;;;4971109;28;90486;-43
2022/01/13 12:30:06;;;;;;;47.33;23.48;;;5.90;99.90;;;;;;4971908;28;90171;-38
2022/01/13 12:32:42;;;;;;;48.55;27.60;;;5.90;99.90;;;;;;4971998;28;87873;-37
2022/01/13 12:35:14;;;;;;;48.13;26.73;;;5.90;99.90;;;;;;4971810;28;87643;-34
2022/01/13 12:37:41;;;;;;;39.58;24.83;;;5.90;99.90;;;;;;4971649;28;90433;-34
2022/01/13 12:40:19;;;;;;;42.83;24.95;;;6.00;99.90;;;;;;4974592;28;89821;-40
2022/01/13 12:42:51;;;;;;;48.35;27.92;;;5.90;99.90;;;;;;4975210;28;88035;-35
2022/01/13 12:45:33;;;;;;;54.30;25.42;;;5.90;99.90;;;;;;4974919;28;88949;-41
2022/01/13 12:48:10;;;;;;;45.00;26.80;;;5.90;99.90;;;;;;4974727;28;90449;-34
2022/01/13 12:50:43;;;;;;;44.83;26.23;;;5.90;99.90;;;;;;4975176;28;88628;-35
2022/01/13 12:53:13;;;;;;;40.90;24.95;;;5.90;99.90;;;;;;4974148;28;88008;-34
2022/01/13 12:56:04;;;;;;;58.00;28.65;;;5.90;99.90;;;;;;4975227;28;87696;-38
2022/01/13 12:58:38;;;;;;;51.72;28.95;;;5.90;99.90;;;;;;4967501;28;91263;-40
2022/01/13 13:01:07;;;;;;;52.88;28.40;;;5.90;99.90;;;;;;4974261;28;89879;-39
2022/01/13 13:03:33;;;;;;;51.60;28.30;;;5.90;99.90;;;;;;4974965;28;88115;-36
2022/01/13 13:05:59;;;;;;;55.58;28.27;;;5.90;99.90;;;;;;4974911;28;88091;-41
2022/01/13 13:08:27;;;;;;;61.45;30.42;;;6.00;99.90;;;;;;4974578;28;90196;-41
2022/01/13 13:11:01;;;;;;;53.90;29.52;;;5.90;99.90;;;;;;4975119;28;90024;-39
2022/01/13 13:13:31;;;;;;;48.55;28.00;;;6.00;99.90;;;;;;4974470;28;87831;-39
2022/01/13 13:15:58;;;;;;;51.38;25.27;;;5.90;99.90;;;;;;4975262;28;88099;-33
2022/01/13 13:18:26;;;;;;;50.83;28.88;;;6.00;99.90;;;;;;4974372;28;90699;-35
2022/01/13 13:20:52;;;;;;;;;;;6.00;99.90;;;;;;4975248;28;89642;-37
2022/01/13 13:23:26;;;;;;;65.55;33.08;;;6.00;99.90;;;;;;4976638;28;87512;-36
2022/01/13 13:25:55;;;;;;;62.95;30.77;;;5.90;99.90;;;;;;4975152;28;87659;-34
2022/01/13 13:28:31;;;;;;;63.67;31.02;;;5.90;99.90;;;;;;4974449;28;88865;-34
2022/01/13 13:30:59;;;;;;;57.15;30.48;;;5.90;99.90;;;;;;4899493;27;91141;-33
2022/01/13 13:33:35;;;;;;;64.78;30.95;;;5.90;99.90;;;;;;4943256;28;88454;-39
2022/01/13 13:36:07;;;;;;;59.60;32.85;;;6.00;99.90;;;;;;4953565;28;88956;-39
2022/01/13 13:38:48;;;;;;;72.63;33.70;;;6.00;99.90;;;;;;4951889;28;89545;-35
2022/01/13 13:41:17;;;;;;;61.95;32.25;;;6.00;99.90;;;;;;4953433;28;89716;-39
2022/01/13 13:43:42;;;;;;;;;;;5.90;99.90;;;;;;4954524;28;88189;-34
2022/01/13 13:46:08;;;;;;;67.65;31.00;;;6.00;99.90;;;;;;4956146;28;88714;-38
2022/01/13 13:48:33;;;;;;;68.97;34.03;;;6.00;99.90;;;;;;4953979;28;90029;-39
2022/01/13 13:50:59;;;;;;;53.83;27.45;;;6.00;99.90;;;;;;4953099;28;89269;-36
2022/01/13 13:53:25;;;;;;;61.13;34.08;;;6.10;99.90;;;;;;4953224;28;88066;-35
2022/01/13 13:56:03;;;;;;;51.17;31.33;;;6.00;99.90;;;;;;4954397;28;87640;-38
2022/01/13 13:58:29;;;;;;;67.75;35.22;;;6.10;99.90;;;;;;4950918;28;90099;-35
2022/01/13 14:01:04;;;;;;;76.85;36.35;;;6.10;99.90;;;;;;4953836;28;89651;-35
2022/01/13 14:03:38;;;;;;;59.15;33.17;;;6.10;99.90;;;;;;4950381;28;88595;-41
2022/01/13 14:06:03;;;;;;;59.58;32.13;;;6.10;99.90;;;;;;4953252;28;87993;-39
2022/01/13 14:08:29;;;;;;;55.75;32.30;;;6.00;99.90;;;;;;4953460;28;90419;-38
2022/01/13 14:13:35;;;;;;;53.92;34.33;;;6.10;99.90;;;;;;4956749;28;87827;-80
2022/01/13 14:16:00;;;;;;;78.80;37.78;;;6.20;99.90;;;;;;4943171;28;87595;-79
2022/01/13 14:18:36;;;;;;;61.35;34.67;;;6.20;99.90;;;;;;4937789;28;88210;-79
2022/01/13 14:21:11;;;;;;;69.78;36.53;;;6.20;99.90;;;;;;4777969;28;89816;-81
2022/01/13 14:23:50;;;;;;;70.05;37.35;;;6.30;99.90;;;;;;4787328;28;87946;-78
2022/01/13 14:26:22;;;;;;;60.38;35.55;;;6.20;99.90;;;;;;4906787;28;87683;-80
2022/01/13 14:28:50;;;;;;;61.78;35.05;;;6.20;99.90;;;;;;4925729;28;90783;-79
2022/01/13 14:32:45;;;;;;;56.90;34.38;;;6.20;99.90;;;;;;4876368;27;87741;-35
2022/01/13 14:35:10;;;;;;;70.07;38.75;;;6.30;99.90;;;;;;5008284;28;87754;-35
2022/01/13 14:37:36;;;;;;;55.20;35.45;;;6.40;99.90;;;;;;5008942;28;87781;-38
2022/01/13 14:40:07;;;;;;;58.90;36.13;;;6.30;99.90;;;;;;5008557;28;90633;-41
2022/01/13 14:42:33;;;;;;;68.13;39.22;;;6.30;99.90;;;;;;5008911;28;91165;-42
2022/01/13 14:45:19;;;;;;;53.92;34.45;;;6.30;99.90;;;;;;5008218;28;87514;-38
2022/01/13 14:47:46;;;;;;;56.22;38.22;;;6.40;99.90;;;;;;5008234;28;88102;-39
2022/01/13 14:50:12;;;;;;;56.97;37.38;;;6.40;99.90;;;;;;5008844;28;90059;-39
2022/01/13 14:52:38;;;;;;;65.00;38.83;;;6.40;99.90;;;;;;5008626;28;89972;-37
2022/01/13 14:55:04;;;;;;;60.75;37.08;;;6.40;99.90;;;;;;5008220;28;88285;-33
2022/01/13 14:57:30;;;;;;;64.97;39.33;;;6.40;99.90;;;;;;5008725;28;87699;-43
2022/01/13 14:59:56;;;;;;;59.90;39.05;;;6.40;99.90;;;;;;5008400;28;90231;-39
2022/01/13 15:02:22;;;;;;;54.17;37.78;;;6.40;99.90;;;;;;5006695;28;89548;-39
2022/01/13 15:04:48;;;;;;;62.95;38.95;;;6.40;99.90;;;;;;5008123;28;88567;-37
2022/01/13 15:07:13;;;;;;;64.57;40.63;;;6.40;99.90;;;;;;5008481;28;88523;-40
2022/01/13 15:09:39;;;;;;;64.65;40.85;;;6.40;99.90;;;;;;5008638;28;90236;-37
2022/01/13 15:12:05;;;;;;;61.40;38.22;;;6.40;99.90;;;;;;5007997;28;89690;-37
2022/01/13 15:14:31;;;;;;;55.97;37.47;;;6.40;99.90;;;;;;5004357;28;88725;-36
2022/01/13 15:16:56;;;;;;;61.45;39.75;;;6.40;99.90;;;;;;4992984;28;88499;-38
2022/01/13 15:19:25;;;;;;;56.65;38.67;;;6.50;99.90;;;;;;4997046;28;90773;-40
2022/01/13 15:21:51;;;;;;;54.55;37.70;;;6.50;99.90;;;;;;4996412;28;89691;-38
2022/01/13 15:24:16;;;;;;;63.88;39.53;;;6.50;99.90;;;;;;4993396;28;88456;-37
2022/01/13 15:26:42;;;;;;;52.83;35.08;;;6.50;99.90;;;;;;4986626;28;88348;-43
2022/01/13 15:29:09;;;;;;;56.03;36.10;;;6.50;99.90;;;;;;4988311;28;89787;-37
2022/01/13 15:31:35;;;;;;;59.50;38.83;;;6.50;99.90;;;;;;4987321;28;89615;-36
2022/01/13 15:34:01;;;;;;;62.85;40.10;;;6.50;99.90;;;;;;4069915;28;10000886;-37
2022/01/13 15:36:27;;;;;;;58.00;39.97;;;6.40;99.90;;;;;;4948706;28;89635;-38
2022/01/13 15:38:53;;;;;;;63.97;40.70;;;6.40;99.90;;;;;;4917231;28;88875;-40
2022/01/13 15:41:19;;;;;;;55.00;36.90;;;6.40;99.90;;;;;;4948754;28;87669;-37
2022/01/13 15:43:45;;;;;;;60.85;40.65;;;6.50;99.90;;;;;;4882964;28;90634;-35
2022/01/13 15:46:10;;;;;;;51.30;35.10;;;6.50;99.90;;;;;;4927671;28;89761;-35
2022/01/13 15:48:36;;;;;;;62.65;36.30;;;6.40;99.90;;;;;;4927505;28;89637;-35
2022/01/13 15:51:02;;;;;;;59.60;38.65;;;6.50;99.90;;;;;;4954311;28;88013;-40
2022/01/13 15:53:27;;;;;;;63.33;40.90;;;6.50;99.90;;;;;;4953646;28;90501;-38
2022/01/13 15:55:54;;;;;;;59.28;39.53;;;6.50;99.90;;;;;;4953499;28;89709;-36
2022/01/13 15:58:20;;;;;;;59.97;39.55;;;6.40;99.90;;;;;;4954339;28;87573;-32
2022/01/13 16:00:45;;;;;;;61.33;39.75;;;6.50;99.90;;;;;;4954549;28;89058;-41
2022/01/13 16:03:11;;;;;;;55.83;36.40;;;6.40;99.90;;;;;;4954317;28;90095;-32
2022/01/13 16:05:36;;;;;;;68.45;41.38;;;6.40;99.90;;;;;;4954959;28;89346;-34
2022/01/13 16:08:03;;;;;;;55.25;40.78;;;6.40;99.90;;;;;;4954768;28;87472;-34
2022/01/13 16:10:29;;;;;;;65.38;41.03;;;6.50;99.90;;;;;;4954774;28;88521;-34
2022/01/13 16:12:54;;;;;;;58.70;39.25;;;6.40;99.90;;;;;;4954186;28;90440;-34
2022/01/13 16:15:20;;;;;;;65.72;39.38;;;6.40;99.90;;;;;;4954252;28;89726;-37
2022/01/13 16:17:49;;;;;;;59.78;37.97;;;6.50;99.90;;;;;;4954710;28;87466;-39
2022/01/13 16:20:16;;;;;;;68.68;38.65;;;6.50;99.90;;;;;;4954850;28;87691;-40
2022/01/13 16:22:42;;;;;;;59.47;37.83;;;6.50;99.90;;;;;;4954038;28;90783;-34
2022/01/13 16:25:10;;;;;;;54.67;36.05;;;6.50;99.90;;;;;;4954384;28;89982;-36
2022/01/13 16:27:35;;;;;;;56.47;38.65;;;6.50;99.90;;;;;;4954386;28;87868;-35
2022/01/13 16:30:13;;;;;;;56.35;39.60;;;6.50;99.90;;;;;;4953985;28;88875;-38
2022/01/13 16:32:45;;;;;;;57.20;40.00;;;6.50;99.90;;;;;;4953127;28;90032;-39
2022/01/13 16:35:13;;;;;;;67.15;39.50;;;6.50;99.90;;;;;;4953672;28;89885;-35
2022/01/13 16:37:40;;;;;;;60.60;42.65;;;6.50;99.90;;;;;;4954490;28;87816;-37
2022/01/13 16:40:09;;;;;;;57.55;37.40;;;6.50;99.90;;;;;;4954011;28;87635;-41
2022/01/13 16:42:40;;;;;;;66.97;39.55;;;6.50;99.90;;;;;;4953878;28;90034;-40
2022/01/13 16:45:08;;;;;;;64.13;41.13;;;6.50;99.90;;;;;;4953957;28;90006;-39
2022/01/13 16:47:36;;;;;;;65.75;41.17;;;6.50;99.90;;;;;;4954341;28;87566;-39
2022/01/13 16:50:05;;;;;;;67.17;41.43;;;6.50;99.90;;;;;;4954315;28;87613;-39
2022/01/13 16:52:31;;;;;;;55.03;39.85;;;6.50;99.90;;;;;;4954031;28;90406;-37
2022/01/13 16:54:59;;;;;;;68.25;41.53;;;6.50;99.90;;;;;;4952830;28;89460;-39
2022/01/13 16:57:26;;;;;;;62.78;41.05;;;6.50;99.90;;;;;;4954099;28;87773;-42
2022/01/13 16:59:52;;;;;;;65.53;42.53;;;6.50;99.90;;;;;;4953842;28;88736;-36
2022/01/13 17:02:17;;;;;;;60.30;37.97;;;6.50;99.90;;;;;;4953147;28;90063;-38
2022/01/13 17:04:43;;;;;;;58.40;38.97;;;6.50;99.90;;;;;;4952807;28;89462;-41
2022/01/13 17:07:09;;;;;;;57.47;39.38;;;6.60;99.90;;;;;;4954073;28;88483;-37
2022/01/13 17:09:35;;;;;;;60.33;40.28;;;6.50;99.90;;;;;;4953930;28;87622;-38
2022/01/13 17:12:01;;;;;;;66.72;38.63;;;6.60;99.90;;;;;;4953222;28;90511;-39
2022/01/13 17:14:26;;;;;;;64.97;38.65;;;6.50;99.90;;;;;;4953252;28;89531;-39
2022/01/13 17:16:53;;;;;;;58.30;38.17;;;6.60;99.90;;;;;;4952128;28;88064;-38
2022/01/13 17:19:20;;;;;;;53.95;37.50;;;6.60;99.90;;;;;;4954109;28;87502;-41
2022/01/13 17:21:45;;;;;;;64.50;41.50;;;6.60;99.90;;;;;;4952938;28;90029;-41
2022/01/13 17:24:12;;;;;;;59.78;38.92;;;6.60;99.90;;;;;;4953652;28;89307;-34
2022/01/13 17:26:38;;;;;;;60.33;39.38;;;6.60;99.90;;;;;;4953658;28;87717;-38
2022/01/13 17:29:03;;;;;;;61.50;38.42;;;6.60;99.90;;;;;;4952863;28;88206;-37
2022/01/13 17:31:30;;;;;;;61.03;42.35;;;6.50;99.90;;;;;;4952980;28;90254;-38
2022/01/13 17:33:55;;;;;;;63.63;40.28;;;6.50;99.90;;;;;;4952591;28;89409;-34
2022/01/13 17:36:21;;;;;;;64.22;40.65;;;6.50;99.90;;;;;;4953674;28;87554;-39
2022/01/13 17:38:48;;;;;;;62.05;40.92;;;6.50;99.90;;;;;;4953208;28;87865;-40
2022/01/13 17:41:15;;;;;;;60.45;37.95;;;6.50;99.90;;;;;;4953030;28;90561;-40
2022/01/13 17:43:41;;;;;;;58.83;37.60;;;6.50;99.90;;;;;;4951994;28;90105;-37
2022/01/13 17:46:07;;;;;;;54.67;38.63;;;6.50;99.90;;;;;;4953037;28;87645;-35
2022/01/13 17:48:33;;;;;;;55.70;37.90;;;6.50;99.90;;;;;;4952233;28;88945;-38
2022/01/13 17:50:59;;;;;;;61.15;37.88;;;6.50;99.90;;;;;;4952391;28;90014;-42
2022/01/13 17:53:24;;;;;;;67.80;39.05;;;6.60;99.90;;;;;;4950440;28;89372;-35
2022/01/13 17:55:52;;;;;;;63.00;38.90;;;6.50;99.90;;;;;;4951873;28;87598;-37
2022/01/13 17:58:17;;;;;;;55.63;38.20;;;6.50;99.90;;;;;;4952329;28;88764;-36
2022/01/13 18:00:43;;;;;;;62.95;41.60;;;6.50;99.90;;;;;;4952591;28;90025;-39
2022/01/13 18:03:09;;;;;;;62.60;40.78;;;6.50;99.90;;;;;;4952617;28;88875;-34
2022/01/13 18:05:34;;;;;;;63.17;40.83;;;6.50;99.90;;;;;;4952595;28;88410;-38
2022/01/13 18:08:00;;;;;;;56.00;36.38;;;6.50;99.90;;;;;;4952682;28;87799;-39
2022/01/13 18:10:26;;;;;;;64.50;41.40;;;6.50;99.90;;;;;;4953295;28;90211;-37
2022/01/13 18:12:55;;;;;;;58.63;39.63;;;6.50;99.90;;;;;;4952737;28;89151;-34
2022/01/13 18:15:21;;;;;;;54.15;40.92;;;6.50;99.90;;;;;;4952861;28;88208;-35
2022/01/13 18:17:47;;;;;;;64.95;37.92;;;6.50;99.90;;;;;;4952552;28;87987;-39
2022/01/13 18:20:13;;;;;;;53.88;37.80;;;6.60;99.90;;;;;;4952924;28;89650;-36
2022/01/13 18:22:40;;;;;;;47.08;40.72;;;6.60;99.90;;;;;;4952820;28;89700;-34
2022/01/13 18:25:08;;;;;;;60.72;39.72;;;6.60;99.90;;;;;;4952246;28;87846;-38
2022/01/13 18:27:34;;;;;;;65.70;38.85;;;6.60;99.90;;;;;;4952633;28;89100;-39
2022/01/13 18:30:00;;;;;;;53.55;37.03;;;6.60;99.90;;;;;;4952376;28;90086;-38
2022/01/13 18:32:25;;;;;;;51.53;36.50;;;6.50;99.90;;;;;;4952830;28;89606;-36
2022/01/13 18:34:51;;;;;;;59.00;36.40;;;6.60;99.90;;;;;;4951983;28;87532;-35
2022/01/13 18:37:17;;;;;;;52.67;37.53;;;6.60;99.90;;;;;;4952955;28;88607;-39
2022/01/13 18:39:44;;;;;;;52.28;35.33;;;6.60;99.90;;;;;;4952247;28;90618;-35
2022/01/13 18:42:16;;;;;;;53.28;33.33;;;6.60;99.90;;;;;;4952021;28;88679;-38
2022/01/13 18:44:44;;;;;;;54.83;36.75;;;6.60;99.90;;;;;;4952524;28;87529;-39
2022/01/13 18:47:13;;;;;;;57.65;38.22;;;6.60;99.90;;;;;;4952860;28;87944;-34
2022/01/13 18:49:42;;;;;;;52.65;32.85;;;6.50;99.90;;;;;;4952750;28;91808;-37
2022/01/13 18:52:08;;;;;;;56.85;37.72;;;6.50;99.90;;;;;;4951674;28;90134;-35
2022/01/13 18:54:34;;;;;;;59.65;36.17;;;6.50;99.90;;;;;;4950510;28;87570;-39
2022/01/13 18:57:00;;;;;;;56.65;36.92;;;6.40;99.90;;;;;;4951950;28;88078;-39
2022/01/13 18:59:27;;;;;;;57.47;37.70;;;6.40;99.90;;;;;;4952334;28;90619;-37
2022/01/13 19:01:53;;;;;;;58.22;36.72;;;6.40;99.90;;;;;;4951536;28;89473;-33
2022/01/13 19:04:20;;;;;;;47.13;33.67;;;6.40;99.90;;;;;;4951508;28;88875;-38
2022/01/13 19:06:48;;;;;;;61.17;37.03;;;6.40;99.90;;;;;;4951461;28;88516;-39
2022/01/13 19:09:15;;;;;;;56.67;37.38;;;6.50;99.90;;;;;;4951011;28;90311;-35
2022/01/13 19:11:41;;;;;;;58.40;36.28;;;6.50;99.90;;;;;;4951486;28;89667;-37
2022/01/13 19:14:08;;;;;;;48.67;32.08;;;6.40;99.90;;;;;;4950591;28;88325;-34
2022/01/13 19:16:34;;;;;;;64.55;37.92;;;6.40;99.90;;;;;;4951848;28;88319;-42
2022/01/13 19:19:04;;;;;;;63.83;39.92;;;6.40;99.90;;;;;;4953431;28;90743;-35
2022/01/13 19:21:30;;;;;;;56.30;35.92;;;6.40;99.90;;;;;;4954250;28;89863;-34
2022/01/13 19:23:59;;;;;;;60.35;36.22;;;6.40;99.90;;;;;;4955187;28;87939;-33
2022/01/13 19:26:25;;;;;;;55.85;34.60;;;6.40;99.90;;;;;;4955381;28;88483;-37
2022/01/13 19:28:50;;;;;;;55.30;35.38;;;6.40;99.90;;;;;;4953678;28;90158;-39
2022/01/13 19:31:16;;;;;;;58.70;35.45;;;6.50;99.90;;;;;;4954325;28;89845;-34
2022/01/13 19:33:45;;;;;;;58.05;37.28;;;6.40;99.90;;;;;;4955237;28;87537;-43
2022/01/13 19:36:10;;;;;;;55.05;35.97;;;6.40;99.90;;;;;;4956586;28;88599;-35
2022/01/13 19:38:39;;;;;;;60.38;36.05;;;6.40;99.90;;;;;;4957392;28;90235;-35
2022/01/13 19:41:09;;;;;;;52.67;35.38;;;6.40;99.90;;;;;;4956517;28;89097;-37
2022/01/13 19:43:35;;;;;;;66.30;36.95;;;6.40;99.90;;;;;;4957363;28;87623;-36
2022/01/13 19:46:01;;;;;;;52.03;34.00;;;6.40;99.90;;;;;;4957168;28;88264;-36
2022/01/13 19:48:30;;;;;;;57.70;37.53;;;6.40;99.90;;;;;;4957291;28;90126;-35
2022/01/13 19:50:56;;;;;;;58.00;36.15;;;6.40;99.90;;;;;;4957381;28;88764;-35
2022/01/13 19:53:24;;;;;;;48.42;34.60;;;6.40;99.90;;;;;;4957475;28;87510;-38
2022/01/13 19:55:52;;;;;;;59.10;38.28;;;6.40;99.90;;;;;;4956787;28;87661;-37
2022/01/13 19:58:18;;;;;;;45.22;30.65;;;6.40;99.90;;;;;;4956942;28;90349;-38
2022/01/13 20:00:44;;;;;;;57.20;36.15;;;6.40;99.90;;;;;;4956503;28;89873;-38
2022/01/13 20:03:11;;;;;;;55.50;34.78;;;6.40;99.90;;;;;;4956817;28;87531;-40
2022/01/13 20:05:36;;;;;;;57.08;35.92;;;6.40;99.90;;;;;;4956890;28;88237;-35
2022/01/13 20:08:02;;;;;;;62.97;36.63;;;6.40;99.90;;;;;;4956408;28;90214;-34
2022/01/13 20:10:29;;;;;;;53.45;33.38;;;6.30;99.90;;;;;;4957126;28;89337;-37
2022/01/13 20:12:56;;;;;;;51.63;33.45;;;6.40;99.90;;;;;;4956844;28;87630;-34
2022/01/13 20:15:23;;;;;;;50.10;32.38;;;6.40;99.90;;;;;;4956639;28;87592;-38
2022/01/13 20:17:50;;;;;;;51.03;35.35;;;6.40;99.90;;;;;;4955651;28;90133;-33
2022/01/13 20:20:17;;;;;;;58.92;34.78;;;6.40;99.90;;;;;;4955883;28;89536;-34
2022/01/13 20:22:43;;;;;;;52.67;35.35;;;6.40;99.90;;;;;;4942036;28;88354;-41
2022/01/13 20:25:11;;;;;;;57.22;34.78;;;6.40;99.90;;;;;;4967408;28;87521;-35
2022/01/13 20:27:41;;;;;;;60.95;37.97;;;6.40;99.90;;;;;;4957059;28;90281;-35
2022/01/13 20:30:09;;;;;;;54.17;34.83;;;6.30;99.90;;;;;;4956195;28;90096;-36
2022/01/13 20:32:35;;;;;;;59.90;39.42;;;6.30;99.90;;;;;;4956254;28;88635;-39
2022/01/13 20:35:01;;;;;;;52.20;37.30;;;6.30;99.90;;;;;;4956158;28;87658;-36
2022/01/13 20:37:26;;;;;;;60.60;39.33;;;6.30;99.90;;;;;;4955623;28;89842;-33
2022/01/13 20:39:52;;;;;;;58.83;37.40;;;6.30;99.90;;;;;;4920356;28;89927;-38
2022/01/13 20:42:17;;;;;;;68.20;35.58;;;6.30;99.90;;;;;;4954248;28;87856;-38
2022/01/13 20:44:43;;;;;;;59.95;40.25;;;6.30;99.90;;;;;;4953912;28;88629;-46
2022/01/13 20:47:08;;;;;;;65.90;39.00;;;6.30;99.90;;;;;;4953338;28;89304;-36
2022/01/13 20:49:34;;;;;;;60.75;38.03;;;6.20;99.90;;;;;;4953969;28;89724;-38
2022/01/13 20:52:00;;;;;;;60.65;41.13;;;6.20;99.90;;;;;;4954644;28;88136;-37